Time;durP1;ratioP1;P1;durP2;ratioP2;P2;SDS_P1;SDS_P2;PMS_P1;PMS_P2;Temp;Humidity;BMP_temperature;BMP_pressure;BME280_temperature;BME280_humidity;BME280_pressure;Samples;Min_cycle;Max_cycle;Signal;HPM_P1;HPM_P2
2022/09/21 00:01:06;;;;;;;0.10;0.10;;;7.90;99.90;;;;;;6247088;22;20375;-87
2022/09/21 00:03:31;;;;;;;0.10;0.10;;;7.90;99.90;;;;;;6248144;22;20016;-83
2022/09/21 00:06:05;;;;;;;0.30;0.00;;;7.90;99.90;;;;;;6221955;22;20328;-85
2022/09/21 00:08:31;;;;;;;0.70;0.20;;;7.90;99.90;;;;;;6222992;22;20436;-84
2022/09/21 00:10:58;;;;;;;0.47;0.30;;;7.90;99.90;;;;;;6247418;22;20365;-84
2022/09/21 00:13:27;;;;;;;0.38;0.10;;;7.90;99.90;;;;;;6248305;22;20008;-84
2022/09/21 00:15:55;;;;;;;0.20;0.20;;;7.80;99.90;;;;;;6197754;22;20435;-84
2022/09/21 00:18:22;;;;;;;0.30;0.10;;;7.80;99.90;;;;;;6222104;22;20016;-84
2022/09/21 00:20:48;;;;;;;;;;;7.80;99.90;;;;;;6222498;22;20016;-83
2022/09/21 00:23:14;;;;;;;0.20;0.13;;;7.70;99.90;;;;;;6222662;22;20311;-84
2022/09/21 00:25:40;;;;;;;0.08;0.08;;;7.70;99.90;;;;;;6247938;22;20408;-86
2022/09/21 00:28:06;;;;;;;0.00;0.00;;;7.70;99.90;;;;;;6222236;22;20011;-84
2022/09/21 00:30:32;;;;;;;0.20;0.10;;;7.70;99.90;;;;;;6197241;22;20016;-83
2022/09/21 00:32:58;;;;;;;0.17;0.13;;;7.60;99.90;;;;;;6196361;22;20016;-83
2022/09/21 00:35:24;;;;;;;0.25;0.17;;;7.60;99.90;;;;;;6197569;22;20047;-84
2022/09/21 00:37:49;;;;;;;0.10;0.10;;;7.60;99.90;;;;;;6196914;22;20027;-84
2022/09/21 00:40:15;;;;;;;0.27;0.27;;;7.60;99.90;;;;;;6247629;22;20011;-84
2022/09/21 00:42:41;;;;;;;0.25;0.13;;;7.60;99.90;;;;;;6222498;22;20012;-83
2022/09/21 00:45:19;;;;;;;0.20;0.20;;;7.50;99.90;;;;;;6196621;22;20302;-83
2022/09/21 00:47:51;;;;;;;0.10;0.10;;;7.50;99.90;;;;;;6199317;22;20500;-83
2022/09/21 00:50:23;;;;;;;0.20;0.10;;;7.50;99.90;;;;;;6247488;22;20012;-84
2022/09/21 00:52:54;;;;;;;0.52;0.28;;;7.40;99.90;;;;;;6221809;22;20011;-85
2022/09/21 00:55:31;;;;;;;0.10;0.10;;;7.40;99.90;;;;;;6248340;22;20069;-84
2022/09/21 00:58:07;;;;;;;0.10;0.10;;;7.30;99.90;;;;;;6247726;22;20376;-84
2022/09/21 01:00:33;;;;;;;0.38;0.13;;;7.30;99.90;;;;;;6222477;22;20023;-84
2022/09/21 01:03:00;;;;;;;0.10;0.10;;;7.20;99.90;;;;;;6197221;22;20015;-83
2022/09/21 01:05:27;;;;;;;0.43;0.38;;;7.20;99.90;;;;;;6222227;22;20022;-84
2022/09/21 01:07:55;;;;;;;0.22;0.22;;;7.20;99.90;;;;;;6197447;22;20012;-84
2022/09/21 01:10:22;;;;;;;0.13;0.10;;;7.10;99.90;;;;;;6247899;22;20011;-84
2022/09/21 01:13:00;;;;;;;0.10;0.10;;;7.10;99.90;;;;;;6246999;22;20459;-84
2022/09/21 01:16:09;;;;;;;0.30;0.10;;;7.10;99.90;;;;;;6247830;22;20015;-83
2022/09/21 01:18:38;;;;;;;;;;;7.10;99.90;;;;;;6222766;22;20015;-83
2022/09/21 01:21:25;;;;;;;0.65;0.20;;;7.10;99.90;;;;;;6221817;22;19942;-83
2022/09/21 01:24:22;;;;;;;0.00;0.00;;;7.00;99.90;;;;;;6247469;22;20733;-84
2022/09/21 01:27:12;;;;;;;1.17;0.52;;;7.00;99.90;;;;;;6221931;22;20023;-84
2022/09/21 01:29:57;;;;;;;0.80;0.00;;;7.00;99.90;;;;;;6247644;22;20328;-83
2022/09/21 01:32:28;;;;;;;0.35;0.10;;;6.90;99.90;;;;;;6221331;22;20012;-83
2022/09/21 01:34:58;;;;;;;0.13;0.10;;;6.90;99.90;;;;;;6221896;22;20113;-84
2022/09/21 01:37:35;;;;;;;0.20;0.10;;;6.90;99.90;;;;;;6246592;22;20012;-83
2022/09/21 01:40:09;;;;;;;0.30;0.10;;;6.90;99.90;;;;;;6246870;22;20012;-84
2022/09/21 01:42:38;;;;;;;0.10;0.10;;;6.80;99.90;;;;;;6247943;22;20316;-83
2022/09/21 01:45:06;;;;;;;0.57;0.10;;;6.80;99.90;;;;;;6246706;22;20086;-84
2022/09/21 01:47:34;;;;;;;0.20;0.20;;;6.80;99.90;;;;;;6195861;22;20011;-84
2022/09/21 01:50:04;;;;;;;0.10;0.10;;;6.70;99.90;;;;;;6222316;22;20019;-84
2022/09/21 01:52:41;;;;;;;0.08;0.08;;;6.70;99.90;;;;;;6247670;22;20016;-84
2022/09/21 01:55:14;;;;;;;0.20;0.20;;;6.70;99.90;;;;;;6246756;22;20126;-88
2022/09/21 01:57:53;;;;;;;0.10;0.10;;;6.70;99.90;;;;;;6247830;22;20328;-83
2022/09/21 02:00:19;;;;;;;0.10;0.10;;;6.70;99.90;;;;;;6246101;22;20491;-83
2022/09/21 02:02:50;;;;;;;0.10;0.10;;;6.60;99.90;;;;;;6196965;22;20328;-83
2022/09/21 02:05:20;;;;;;;0.00;0.00;;;6.60;99.90;;;;;;6248021;22;20018;-83
2022/09/21 02:07:47;;;;;;;0.15;0.05;;;6.60;99.90;;;;;;6248993;22;20012;-83
2022/09/21 02:10:17;;;;;;;;;;;6.60;99.90;;;;;;6223483;22;20055;-84
2022/09/21 02:12:43;;;;;;;0.25;0.20;;;7.40;99.90;;;;;;6249145;22;19919;-83
2022/09/21 02:15:09;;;;;;;0.13;0.10;;;6.60;99.90;;;;;;6222835;22;20095;-84
2022/09/21 02:17:38;;;;;;;0.93;0.17;;;6.60;99.90;;;;;;6248816;22;20069;-83
2022/09/21 02:20:24;;;;;;;0.00;0.00;;;7.00;99.90;;;;;;6248206;22;20012;-83
2022/09/21 02:22:56;;;;;;;0.10;0.10;;;7.20;99.90;;;;;;6223793;22;20015;-84
2022/09/21 02:26:21;;;;;;;0.35;0.15;;;6.50;99.90;;;;;;6248487;22;20062;-84
2022/09/21 02:28:52;;;;;;;0.13;0.13;;;6.40;99.90;;;;;;6098241;23;20018;-84
2022/09/21 02:31:43;;;;;;;0.20;0.20;;;6.40;99.90;;;;;;6097584;23;20017;-84
2022/09/21 02:34:36;;;;;;;0.55;0.35;;;6.50;99.90;;;;;;6195875;22;20008;-84
2022/09/21 02:37:21;;;;;;;0.20;0.20;;;6.50;99.90;;;;;;6230716;22;20431;-89
2022/09/21 02:39:59;;;;;;;0.22;0.22;;;6.50;99.90;;;;;;6248911;22;20051;-83
2022/09/21 02:42:37;;;;;;;1.20;0.38;;;6.50;99.90;;;;;;6223441;22;20385;-84
2022/09/21 02:45:13;;;;;;;0.43;0.10;;;6.80;99.90;;;;;;6248453;22;20055;-83
2022/09/21 02:47:56;;;;;;;0.20;0.20;;;6.40;99.90;;;;;;6249008;22;20015;-83
2022/09/21 02:50:37;;;;;;;0.20;0.20;;;6.40;99.90;;;;;;6247737;22;20050;-83
2022/09/21 02:53:05;;;;;;;0.00;0.00;;;6.30;99.90;;;;;;6249025;22;20324;-83
2022/09/21 02:55:32;;;;;;;0.75;0.30;;;6.30;99.90;;;;;;6248582;22;20103;-83
2022/09/21 02:58:02;;;;;;;0.00;0.00;;;7.20;99.90;;;;;;6249357;22;20305;-83
2022/09/21 03:00:28;;;;;;;0.15;0.10;;;6.20;99.90;;;;;;6248564;22;20046;-84
2022/09/21 03:02:54;;;;;;;0.53;0.17;;;6.80;99.90;;;;;;6198608;22;20015;-83
2022/09/21 03:05:19;;;;;;;0.13;0.13;;;6.10;99.90;;;;;;6223047;22;20078;-83
2022/09/21 03:07:45;;;;;;;0.10;0.10;;;6.10;99.90;;;;;;6198133;22;20062;-83
2022/09/21 03:10:11;;;;;;;0.47;0.20;;;7.00;99.90;;;;;;6247869;22;20011;-84
2022/09/21 03:12:37;;;;;;;0.20;0.00;;;6.10;99.90;;;;;;6197611;22;20389;-83
2022/09/21 03:15:03;;;;;;;0.00;0.00;;;7.20;99.90;;;;;;6223144;22;20015;-83
2022/09/21 03:17:29;;;;;;;0.00;0.00;;;6.10;99.90;;;;;;6248090;22;20016;-82
2022/09/21 03:19:55;;;;;;;0.10;0.10;;;7.30;99.90;;;;;;6173394;22;20018;-87
2022/09/21 03:22:24;;;;;;;0.10;0.10;;;6.00;99.90;;;;;;6197267;22;20011;-83
2022/09/21 03:24:50;;;;;;;0.20;0.20;;;6.00;99.90;;;;;;6223277;22;20145;-83
2022/09/21 03:27:18;;;;;;;0.10;0.10;;;5.90;99.90;;;;;;6222602;22;20164;-84
2022/09/21 03:29:45;;;;;;;0.10;0.10;;;5.90;99.90;;;;;;6248421;22;20011;-83
2022/09/21 03:32:10;;;;;;;0.00;0.00;;;6.00;99.90;;;;;;6221637;22;20066;-84
2022/09/21 03:34:36;;;;;;;0.57;0.23;;;5.90;99.90;;;;;;6222382;22;20098;-83
2022/09/21 03:37:07;;;;;;;0.20;0.10;;;5.90;99.90;;;;;;6222780;22;20503;-83
2022/09/21 03:39:32;;;;;;;0.10;0.10;;;6.70;99.90;;;;;;6247485;22;20012;-83
2022/09/21 03:41:59;;;;;;;0.10;0.10;;;5.90;99.90;;;;;;6223561;22;20067;-83
2022/09/21 03:44:25;;;;;;;0.20;0.20;;;5.90;99.90;;;;;;6197732;22;20439;-83
2022/09/21 03:46:51;;;;;;;0.03;0.03;;;5.80;99.90;;;;;;6222229;22;20023;-87
2022/09/21 03:49:17;;;;;;;0.10;0.05;;;5.70;99.90;;;;;;6222070;22;20027;-83
2022/09/21 03:51:43;;;;;;;0.10;0.10;;;6.50;99.90;;;;;;6222522;22;20011;-83
2022/09/21 03:54:09;;;;;;;0.00;0.00;;;5.70;99.90;;;;;;6222830;22;20432;-83
2022/09/21 03:56:35;;;;;;;0.17;0.13;;;5.60;99.90;;;;;;6222696;22;20153;-84
2022/09/21 03:59:01;;;;;;;0.10;0.10;;;6.10;99.90;;;;;;6247671;22;20015;-83
2022/09/21 04:01:27;;;;;;;0.70;0.30;;;5.60;99.90;;;;;;6222405;22;20023;-83
2022/09/21 04:03:53;;;;;;;0.77;0.13;;;5.60;99.90;;;;;;6222332;22;20047;-83
2022/09/21 04:06:19;;;;;;;0.10;0.10;;;5.70;99.90;;;;;;6197155;22;20015;-84
2022/09/21 04:08:44;;;;;;;0.10;0.10;;;5.60;99.90;;;;;;6247898;22;20069;-84
2022/09/21 04:11:12;;;;;;;0.00;0.00;;;6.40;99.90;;;;;;6222934;22;20008;-83
2022/09/21 04:13:38;;;;;;;0.10;0.10;;;6.70;99.90;;;;;;6222365;22;20536;-83
2022/09/21 04:16:04;;;;;;;0.20;0.10;;;5.60;99.90;;;;;;6247572;22;20045;-83
2022/09/21 04:18:31;;;;;;;0.05;0.05;;;5.60;99.90;;;;;;6221723;22;20146;-86
2022/09/21 04:20:57;;;;;;;0.10;0.10;;;6.10;99.90;;;;;;6222558;22;20336;-83
2022/09/21 04:23:23;;;;;;;0.08;0.08;;;5.60;99.90;;;;;;6247495;22;20101;-84
2022/09/21 04:25:51;;;;;;;0.93;0.27;;;5.50;99.90;;;;;;6196525;22;20007;-83
2022/09/21 04:28:17;;;;;;;0.00;0.00;;;5.50;99.90;;;;;;6247356;22;20016;-90
2022/09/21 04:30:43;;;;;;;0.00;0.00;;;5.50;99.90;;;;;;6221629;22;20014;-84
2022/09/21 04:33:09;;;;;;;0.20;0.20;;;5.50;99.90;;;;;;6222790;22;20016;-83
2022/09/21 04:35:35;;;;;;;0.20;0.10;;;5.50;99.90;;;;;;6221679;22;20019;-84
2022/09/21 04:38:01;;;;;;;0.20;0.20;;;6.80;99.90;;;;;;6222782;22;20428;-83
2022/09/21 04:40:27;;;;;;;0.30;0.17;;;5.50;99.90;;;;;;6221415;22;20026;-83
2022/09/21 04:42:53;;;;;;;0.20;0.13;;;5.40;99.90;;;;;;6222505;22;20098;-83
2022/09/21 04:45:20;;;;;;;0.13;0.13;;;6.80;99.90;;;;;;6247618;22;20018;-85
2022/09/21 04:47:46;;;;;;;0.05;0.05;;;5.40;99.90;;;;;;6222192;22;20073;-83
2022/09/21 04:50:12;;;;;;;0.10;0.10;;;5.60;99.90;;;;;;6222426;22;20359;-83
2022/09/21 04:52:39;;;;;;;0.10;0.10;;;5.40;99.90;;;;;;6197064;22;20023;-83
2022/09/21 04:55:06;;;;;;;0.30;0.10;;;6.70;99.90;;;;;;6247703;22;20057;-83
2022/09/21 04:57:34;;;;;;;0.00;0.00;;;5.30;99.90;;;;;;6221237;22;20016;-86
2022/09/21 05:00:01;;;;;;;0.03;0.03;;;5.30;99.90;;;;;;6247432;22;20016;-83
2022/09/21 05:02:26;;;;;;;0.00;0.00;;;5.30;99.90;;;;;;6196373;22;20011;-83
2022/09/21 05:04:52;;;;;;;1.30;0.10;;;5.20;99.90;;;;;;6172575;22;20379;-83
2022/09/21 05:07:18;;;;;;;0.10;0.10;;;5.20;99.90;;;;;;6197701;22;20022;-86
2022/09/21 05:10:01;;;;;;;0.00;0.00;;;5.20;99.90;;;;;;6221895;22;20440;-83
2022/09/21 05:12:27;;;;;;;0.00;0.00;;;5.30;99.90;;;;;;6247459;22;20011;-86
2022/09/21 05:14:54;;;;;;;0.10;0.10;;;5.20;99.90;;;;;;6246388;22;20050;-84
2022/09/21 05:17:21;;;;;;;0.63;0.20;;;6.30;99.90;;;;;;6223000;22;20404;-83
2022/09/21 05:19:50;;;;;;;;;;;5.20;99.90;;;;;;6221839;22;20012;-83
2022/09/21 05:22:17;;;;;;;0.00;0.00;;;5.80;99.90;;;;;;6221833;22;20375;-83
2022/09/21 05:24:42;;;;;;;0.00;0.00;;;5.20;99.90;;;;;;6221566;22;20012;-83
2022/09/21 05:27:09;;;;;;;0.10;0.10;;;5.20;99.90;;;;;;6222589;22;20111;-87
2022/09/21 05:29:35;;;;;;;0.10;0.10;;;5.20;99.90;;;;;;6222145;22;20444;-87
2022/09/21 05:32:05;;;;;;;0.20;0.10;;;5.20;99.90;;;;;;6222545;22;20023;-83
2022/09/21 05:34:40;;;;;;;0.73;0.47;;;5.20;99.90;;;;;;6221780;22;20012;-83
2022/09/21 05:37:31;;;;;;;0.28;0.17;;;5.80;99.90;;;;;;6222628;22;20387;-83
2022/09/21 05:39:57;;;;;;;0.20;0.13;;;5.20;99.90;;;;;;6248860;22;20069;-82
2022/09/21 05:42:23;;;;;;;0.00;0.00;;;5.20;99.90;;;;;;6224871;22;20011;-82
2022/09/21 05:44:49;;;;;;;0.00;0.00;;;5.20;99.90;;;;;;6249011;22;20420;-84
2022/09/21 05:47:36;;;;;;;0.20;0.20;;;5.20;99.90;;;;;;6223759;22;20082;-86
2022/09/21 05:50:33;;;;;;;0.10;0.10;;;5.30;99.90;;;;;;6224609;22;20066;-89
2022/09/21 05:53:17;;;;;;;1.27;0.30;;;5.30;99.90;;;;;;6224153;22;20011;-84
2022/09/21 05:55:56;;;;;;;0.00;0.00;;;5.30;99.90;;;;;;6249543;22;20054;-85
2022/09/21 05:58:40;;;;;;;0.20;0.20;;;5.40;99.90;;;;;;6249787;22;20016;-85
2022/09/21 06:01:24;;;;;;;0.00;0.00;;;5.40;99.90;;;;;;6223880;22;20012;-85
2022/09/21 06:03:50;;;;;;;0.95;0.20;;;5.50;99.90;;;;;;6223154;22;20066;-84
2022/09/21 06:06:19;;;;;;;0.90;0.20;;;5.50;99.90;;;;;;6249972;22;20022;-84
2022/09/21 06:08:45;;;;;;;0.55;0.20;;;5.60;99.90;;;;;;6224228;22;20011;-86
2022/09/21 06:11:11;;;;;;;0.53;0.30;;;5.70;99.90;;;;;;6199237;22;20420;-85
2022/09/21 06:13:37;;;;;;;2.58;0.50;;;7.30;99.90;;;;;;6197734;22;20447;-84
2022/09/21 06:16:04;;;;;;;0.30;0.30;;;6.10;99.90;;;;;;6198954;22;20016;-84
2022/09/21 06:18:29;;;;;;;0.60;0.60;;;6.30;99.90;;;;;;6224206;22;20446;-84
2022/09/21 06:20:55;;;;;;;2.43;0.70;;;6.60;99.90;;;;;;6223715;22;20051;-84
2022/09/21 06:23:21;;;;;;;0.47;0.47;;;6.90;99.90;;;;;;6249680;22;20102;-83
2022/09/21 06:25:51;;;;;;;0.30;0.30;;;7.20;99.90;;;;;;6199401;22;20008;-83
2022/09/21 06:28:17;;;;;;;0.90;0.47;;;7.90;99.90;;;;;;6225128;22;20328;-84
2022/09/21 06:30:43;;;;;;;1.95;0.77;;;7.80;99.90;;;;;;6249369;22;20068;-84
2022/09/21 06:33:09;;;;;;;3.15;0.95;;;8.10;99.90;;;;;;6200004;22;20015;-81
2022/09/21 06:35:36;;;;;;;1.00;0.83;;;8.20;99.90;;;;;;6198468;22;20004;-93
2022/09/21 06:38:06;;;;;;;0.93;0.45;;;8.20;99.90;;;;;;6275837;22;20214;-86
2022/09/21 06:40:34;;;;;;;2.22;0.77;;;8.10;99.90;;;;;;6225038;22;20034;-87
2022/09/21 06:43:02;;;;;;;1.20;0.57;;;8.10;99.90;;;;;;6224806;22;20047;-86
2022/09/21 06:45:29;;;;;;;2.15;0.93;;;7.40;99.90;;;;;;6224833;22;20012;-86
2022/09/21 06:47:55;;;;;;;1.60;1.00;;;8.10;99.90;;;;;;6224576;22;20107;-86
2022/09/21 06:50:21;;;;;;;1.45;0.55;;;8.10;99.90;;;;;;6224495;22;20016;-86
2022/09/21 06:52:47;;;;;;;1.00;0.50;;;8.40;99.90;;;;;;6224343;22;20054;-86
2022/09/21 06:55:14;;;;;;;2.10;1.33;;;8.40;99.90;;;;;;6249831;22;20023;-86
2022/09/21 06:57:39;;;;;;;2.47;0.70;;;8.60;99.90;;;;;;6224445;22;20022;-86
2022/09/21 07:00:07;;;;;;;1.57;1.47;;;9.00;99.90;;;;;;6224999;22;20043;-86
2022/09/21 07:02:34;;;;;;;3.72;1.42;;;9.40;99.90;;;;;;6200033;22;20163;-84
2022/09/21 07:04:59;;;;;;;3.15;1.52;;;9.60;99.90;;;;;;6223953;22;20015;-84
2022/09/21 07:07:29;;;;;;;3.13;1.30;;;9.90;99.90;;;;;;6200076;22;20091;-84
2022/09/21 07:09:55;;;;;;;2.58;1.40;;;10.20;99.90;;;;;;6223991;22;20051;-84
2022/09/21 07:12:20;;;;;;;2.95;1.13;;;10.60;99.90;;;;;;6199507;22;20051;-84
2022/09/21 07:14:46;;;;;;;0.37;0.37;;;10.90;99.90;;;;;;6199590;22;20030;-84
2022/09/21 07:17:13;;;;;;;1.70;1.17;;;11.20;99.90;;;;;;6249998;22;20012;-86
2022/09/21 07:19:39;;;;;;;2.60;1.17;;;11.60;99.90;;;;;;6224994;22;20078;-86
2022/09/21 07:22:06;;;;;;;1.92;1.42;;;12.00;99.90;;;;;;6249727;22;20095;-86
2022/09/21 07:24:32;;;;;;;1.63;1.40;;;12.50;99.90;;;;;;6224623;22;20070;-86
2022/09/21 07:26:58;;;;;;;4.13;1.45;;;12.90;99.90;;;;;;6224193;22;20012;-84
2022/09/21 07:29:23;;;;;;;2.08;1.08;;;13.20;99.90;;;;;;6249860;22;20016;-84
2022/09/21 07:31:49;;;;;;;1.93;1.07;;;13.30;99.90;;;;;;6199307;22;20026;-84
2022/09/21 07:34:15;;;;;;;0.73;0.47;;;13.40;99.90;;;;;;6224526;22;20011;-84
2022/09/21 07:36:42;;;;;;;0.43;0.43;;;13.40;99.90;;;;;;6224458;22;20179;-84
2022/09/21 07:39:08;;;;;;;0.38;0.38;;;13.40;99.90;;;;;;6249633;22;20345;-84
2022/09/21 07:41:34;;;;;;;;;;;13.30;99.90;;;;;;6250526;22;20054;-84
2022/09/21 07:44:00;;;;;;;0.75;0.63;;;13.40;99.90;;;;;;6249366;22;19915;-84
2022/09/21 07:46:26;;;;;;;1.55;1.00;;;13.60;99.90;;;;;;6224086;22;20098;-84
2022/09/21 07:48:53;;;;;;;1.02;0.88;;;13.50;99.90;;;;;;6224129;22;20120;-84
2022/09/21 07:51:19;;;;;;;1.98;0.45;;;13.80;99.90;;;;;;6250260;22;20034;-84
2022/09/21 07:53:45;;;;;;;0.40;0.40;;;14.00;99.90;;;;;;6248925;22;20012;-95
2022/09/21 07:56:14;;;;;;;0.30;0.30;;;14.10;99.90;;;;;;6224716;22;20085;-84
2022/09/21 08:01:25;;;;;;;1.02;0.28;;;14.30;99.90;;;;;;6249116;22;20440;-86
2022/09/21 08:03:53;;;;;;;0.90;0.40;;;14.50;99.90;;;;;;6199053;22;20015;-84
2022/09/21 08:06:20;;;;;;;0.50;0.20;;;14.50;99.90;;;;;;6224469;22;20019;-84
2022/09/21 08:08:49;;;;;;;0.20;0.20;;;14.50;99.90;;;;;;6224890;22;20016;-85
2022/09/21 08:11:21;;;;;;;0.30;0.30;;;14.60;99.90;;;;;;6249715;22;20026;-84
2022/09/21 08:13:47;;;;;;;0.30;0.30;;;14.80;99.90;;;;;;6250086;22;20058;-84
2022/09/21 08:16:13;;;;;;;0.05;0.05;;;15.00;99.90;;;;;;6250342;22;20026;-84
2022/09/21 08:18:40;;;;;;;0.20;0.20;;;15.00;99.90;;;;;;6224872;22;20015;-84
2022/09/21 08:21:07;;;;;;;0.20;0.10;;;15.10;99.90;;;;;;6249993;22;20066;-85
2022/09/21 08:23:33;;;;;;;0.00;0.00;;;15.20;99.90;;;;;;6223769;22;20012;-84
2022/09/21 08:26:00;;;;;;;0.10;0.10;;;15.20;99.90;;;;;;6223174;22;20437;-86
2022/09/21 08:28:27;;;;;;;0.10;0.10;;;15.20;99.90;;;;;;6224105;22;20122;-87
2022/09/21 08:30:57;;;;;;;0.08;0.08;;;15.10;99.90;;;;;;6224069;22;20038;-89
2022/09/21 08:33:23;;;;;;;0.00;0.00;;;15.10;99.90;;;;;;6226525;22;20019;-85
2022/09/21 08:35:53;;;;;;;0.27;0.17;;;15.00;99.90;;;;;;6225762;22;20019;-87
2022/09/21 08:38:19;;;;;;;0.00;0.00;;;15.00;99.90;;;;;;6223861;22;20066;-86
2022/09/21 08:40:45;;;;;;;0.00;0.00;;;15.00;99.90;;;;;;6198818;22;20069;-85
2022/09/21 08:43:34;;;;;;;0.00;0.00;;;14.90;99.90;;;;;;6223850;22;20452;-85
2022/09/21 08:46:05;;;;;;;1.45;0.15;;;14.90;99.90;;;;;;6218300;23;20095;-86
2022/09/21 08:48:39;;;;;;;0.00;0.00;;;14.90;99.90;;;;;;6244877;23;20016;-85
2022/09/21 08:51:13;;;;;;;0.00;0.00;;;14.90;99.90;;;;;;6218129;23;20047;-85
2022/09/21 08:53:43;;;;;;;0.13;0.13;;;14.90;99.90;;;;;;6243578;23;20066;-85
2022/09/21 08:56:14;;;;;;;0.00;0.00;;;14.10;99.90;;;;;;6218261;23;20051;-85
2022/09/21 08:58:40;;;;;;;0.10;0.00;;;14.80;99.90;;;;;;6218672;23;20434;-85
2022/09/21 09:01:18;;;;;;;;;;;14.80;99.90;;;;;;6243886;23;20089;-85
2022/09/21 09:04:22;;;;;;;0.00;0.00;;;14.80;99.90;;;;;;6218528;23;20298;-85
2022/09/21 09:07:15;;;;;;;0.00;0.00;;;14.90;99.90;;;;;;6244034;23;20034;-85
2022/09/21 09:09:54;;;;;;;0.00;0.00;;;14.90;99.90;;;;;;6224697;23;20095;-85
2022/09/21 09:12:27;;;;;;;0.00;0.00;;;14.90;99.90;;;;;;6243189;23;20055;-86
2022/09/21 09:15:11;;;;;;;0.00;0.00;;;15.00;99.90;;;;;;6245810;23;20326;-86
2022/09/21 09:17:46;;;;;;;0.00;0.00;;;15.10;99.90;;;;;;6220347;23;20023;-86
2022/09/21 09:20:26;;;;;;;0.00;0.00;;;15.10;99.90;;;;;;6219852;23;20020;-86
2022/09/21 09:23:08;;;;;;;0.13;0.00;;;15.10;99.90;;;;;;6220207;23;20039;-86
2022/09/21 09:25:40;;;;;;;0.55;0.55;;;15.10;99.90;;;;;;6245843;23;20012;-86
2022/09/21 09:28:40;;;;;;;0.00;0.00;;;15.10;99.90;;;;;;6245353;23;20555;-86
2022/09/21 09:31:18;;;;;;;0.13;0.10;;;15.10;99.90;;;;;;6220316;23;20020;-85
2022/09/21 09:33:59;;;;;;;0.15;0.10;;;15.20;99.90;;;;;;6245602;23;20482;-85
2022/09/21 09:36:32;;;;;;;0.00;0.00;;;15.30;99.90;;;;;;6245786;23;20020;-85
2022/09/21 09:39:08;;;;;;;0.00;0.00;;;15.30;99.90;;;;;;6246052;23;20020;-85
2022/09/21 09:41:56;;;;;;;0.00;0.00;;;15.40;99.90;;;;;;6221120;23;20020;-85
2022/09/21 09:44:43;;;;;;;0.00;0.00;;;15.50;99.90;;;;;;6220198;23;20012;-85
2022/09/21 09:47:42;;;;;;;0.10;0.10;;;15.60;99.90;;;;;;6219665;23;20022;-85
2022/09/21 09:50:18;;;;;;;0.00;0.00;;;15.80;99.90;;;;;;6246188;23;20084;-86
2022/09/21 09:52:45;;;;;;;0.00;0.00;;;15.90;99.90;;;;;;6221095;23;20432;-86
2022/09/21 09:55:19;;;;;;;0.00;0.00;;;16.20;99.90;;;;;;6245018;23;20078;-88
2022/09/21 09:57:46;;;;;;;0.00;0.00;;;16.30;99.90;;;;;;6219825;23;20020;-87
2022/09/21 10:00:14;;;;;;;0.17;0.00;;;16.50;99.90;;;;;;6244589;23;20012;-88
2022/09/21 10:02:53;;;;;;;0.10;0.10;;;16.50;99.90;;;;;;6244940;23;20035;-87
2022/09/21 10:05:30;;;;;;;0.00;0.00;;;16.60;99.90;;;;;;6218520;23;20019;-87
2022/09/21 10:07:58;;;;;;;0.08;0.08;;;16.70;99.90;;;;;;6219637;23;20016;-87
2022/09/21 10:10:31;;;;;;;0.00;0.00;;;17.00;99.90;;;;;;6218916;23;20008;-86
2022/09/21 10:13:24;;;;;;;0.00;0.00;;;16.80;99.90;;;;;;6219499;23;20074;-85
2022/09/21 10:15:58;;;;;;;0.00;0.00;;;17.30;99.90;;;;;;6219037;23;20017;-84
2022/09/21 10:18:39;;;;;;;0.05;0.00;;;17.30;99.90;;;;;;6218948;23;20020;-84
2022/09/21 10:21:07;;;;;;;0.00;0.00;;;17.20;99.90;;;;;;6244503;23;20016;-89
2022/09/21 10:23:35;;;;;;;0.00;0.00;;;17.00;99.90;;;;;;6244573;23;20016;-85
2022/09/21 10:26:08;;;;;;;0.00;0.00;;;16.70;99.90;;;;;;6219642;23;20070;-84
2022/09/21 10:28:34;;;;;;;0.13;0.10;;;16.50;99.90;;;;;;6219858;23;20510;-84
2022/09/21 10:31:15;;;;;;;0.00;0.00;;;16.20;99.90;;;;;;6219545;23;20130;-84
2022/09/21 10:34:13;;;;;;;0.10;0.00;;;16.20;99.90;;;;;;6245120;23;20030;-85
2022/09/21 10:36:39;;;;;;;0.10;0.10;;;16.50;99.90;;;;;;6219236;23;20388;-83
2022/09/21 10:39:25;;;;;;;0.00;0.00;;;16.60;99.90;;;;;;6219475;23;20514;-83
2022/09/21 10:41:59;;;;;;;0.00;0.00;;;16.80;99.90;;;;;;6244699;23;20058;-84
2022/09/21 10:45:27;;;;;;;0.00;0.00;;;17.10;99.90;;;;;;6218458;23;20081;-84
2022/09/21 10:48:05;;;;;;;0.05;0.05;;;17.20;99.90;;;;;;6227050;23;20016;-85
2022/09/21 10:50:34;;;;;;;0.10;0.10;;;17.40;99.90;;;;;;6218678;23;20027;-83
2022/09/21 10:53:33;;;;;;;0.00;0.00;;;17.50;99.90;;;;;;6224025;22;20112;-83
2022/09/21 10:56:03;;;;;;;0.03;0.03;;;17.40;99.90;;;;;;6223352;22;20095;-83
2022/09/21 10:58:29;;;;;;;0.00;0.00;;;17.50;99.90;;;;;;6223070;22;20020;-92
2022/09/21 11:01:08;;;;;;;0.00;0.00;;;17.50;99.90;;;;;;6224500;22;20043;-83
2022/09/21 11:03:55;;;;;;;0.00;0.00;;;17.40;99.90;;;;;;6224491;22;20026;-84
2022/09/21 11:06:29;;;;;;;0.00;0.00;;;17.30;99.90;;;;;;6223922;22;20020;-83
2022/09/21 11:09:15;;;;;;;0.10;0.10;;;17.20;99.90;;;;;;6224581;22;20026;-82
2022/09/21 11:12:12;;;;;;;0.00;0.00;;;17.40;99.90;;;;;;6224957;22;20020;-83
2022/09/21 11:14:37;;;;;;;0.00;0.00;;;17.60;99.90;;;;;;6223688;22;20073;-82
2022/09/21 11:17:19;;;;;;;0.03;0.03;;;18.00;99.90;;;;;;6224357;22;20098;-84
2022/09/21 11:20:29;;;;;;;0.00;0.00;;;18.20;99.90;;;;;;6249781;22;20109;-84
2022/09/21 11:23:22;;;;;;;0.00;0.00;;;18.40;99.90;;;;;;6075473;23;20112;-83
2022/09/21 11:26:31;;;;;;;0.08;0.08;;;18.60;99.90;;;;;;6195251;22;20023;-88
2022/09/21 11:29:14;;;;;;;0.10;0.08;;;18.80;99.90;;;;;;6224498;22;20020;-83
2022/09/21 11:32:18;;;;;;;1.00;0.08;;;18.90;99.90;;;;;;6224536;22;20020;-86
2022/09/21 11:35:21;;;;;;;0.00;0.00;;;19.10;99.90;;;;;;6126270;22;20456;-87
2022/09/21 11:38:10;;;;;;;0.00;0.00;;;19.30;99.90;;;;;;6224483;22;20062;-87
2022/09/21 11:41:05;;;;;;;0.00;0.00;;;19.30;99.90;;;;;;6223813;22;20375;-87
2022/09/21 11:43:55;;;;;;;0.00;0.00;;;19.20;99.90;;;;;;6223575;22;20020;-86
2022/09/21 11:46:58;;;;;;;0.88;0.28;;;19.40;99.90;;;;;;6222522;22;20015;-84
2022/09/21 11:49:47;;;;;;;0.00;0.00;;;19.50;99.90;;;;;;6248542;22;20027;-83
2022/09/21 11:52:24;;;;;;;0.00;0.00;;;19.50;99.90;;;;;;6250140;22;20015;-84
2022/09/21 11:55:12;;;;;;;0.00;0.00;;;19.70;99.90;;;;;;6249986;22;20102;-84
2022/09/21 11:57:44;;;;;;;0.00;0.00;;;19.80;99.90;;;;;;6249662;22;20023;-84
2022/09/21 12:00:17;;;;;;;0.00;0.00;;;19.90;99.90;;;;;;6223916;22;20049;-84
2022/09/21 12:02:58;;;;;;;0.00;0.00;;;20.00;99.90;;;;;;6223330;22;20391;-84
2022/09/21 12:05:54;;;;;;;0.00;0.00;;;20.00;99.90;;;;;;6222542;22;20019;-84
2022/09/21 12:08:35;;;;;;;0.00;0.00;;;20.00;99.90;;;;;;6223275;22;20511;-89
2022/09/21 12:11:43;;;;;;;0.00;0.00;;;20.00;99.90;;;;;;6248932;22;20015;-83
2022/09/21 12:14:21;;;;;;;0.00;0.00;;;20.10;99.90;;;;;;6193075;22;20077;-83
2022/09/21 12:17:40;;;;;;;0.00;0.00;;;20.00;99.90;;;;;;6223437;22;20026;-84
2022/09/21 12:20:19;;;;;;;0.10;0.10;;;20.10;95.50;;;;;;6222934;22;20019;-84
2022/09/21 12:22:48;;;;;;;0.45;0.45;;;20.10;99.90;;;;;;6248020;22;20060;-84
2022/09/21 12:25:46;;;;;;;0.00;0.00;;;20.10;99.90;;;;;;6223292;22;20336;-84
2022/09/21 12:28:26;;;;;;;0.00;0.00;;;20.10;99.90;;;;;;6221660;22;20023;-86
2022/09/21 12:30:59;;;;;;;0.00;0.00;;;20.20;95.00;;;;;;6249610;22;20305;-87
2022/09/21 12:33:39;;;;;;;0.00;0.00;;;20.40;99.90;;;;;;6248412;22;20011;-88
2022/09/21 12:36:16;;;;;;;0.00;0.00;;;20.50;99.90;;;;;;6249447;22;20341;-86
2022/09/21 12:38:58;;;;;;;0.00;0.00;;;20.60;99.90;;;;;;6222805;22;20043;-86
2022/09/21 12:41:45;;;;;;;0.00;0.00;;;20.70;99.90;;;;;;6223753;22;20326;-90
2022/09/21 12:44:19;;;;;;;0.05;0.00;;;20.80;99.90;;;;;;6249081;22;20016;-83
2022/09/21 12:46:49;;;;;;;0.00;0.00;;;21.00;94.00;;;;;;6222759;22;20481;-86
2022/09/21 12:49:25;;;;;;;0.00;0.00;;;20.80;98.70;;;;;;6223494;22;20528;-86
2022/09/21 12:51:56;;;;;;;0.00;0.00;;;20.70;99.90;;;;;;6223980;22;20474;-84
2022/09/21 12:54:38;;;;;;;0.00;0.00;;;20.40;99.90;;;;;;6248808;22;20020;-86
2022/09/21 12:57:18;;;;;;;0.00;0.00;;;20.00;96.80;;;;;;6223846;22;20348;-84
2022/09/21 12:59:55;;;;;;;0.00;0.00;;;19.60;99.90;;;;;;6248085;22;20052;-84
2022/09/21 13:02:27;;;;;;;0.15;0.00;;;19.30;99.90;;;;;;6223829;22;20042;-84
2022/09/21 13:05:00;;;;;;;0.00;0.00;;;19.00;99.90;;;;;;6223476;22;20436;-83
2022/09/21 13:07:59;;;;;;;0.00;0.00;;;18.80;99.90;;;;;;6223813;22;20024;-85
2022/09/21 13:10:38;;;;;;;0.00;0.00;;;18.80;99.90;;;;;;6248784;22;20020;-83
2022/09/21 13:13:07;;;;;;;0.00;0.00;;;19.00;99.90;;;;;;6223673;22;20383;-84
2022/09/21 13:15:44;;;;;;;0.00;0.00;;;18.90;99.90;;;;;;6223028;22;20392;-83
2022/09/21 13:18:21;;;;;;;0.00;0.00;;;18.90;99.90;;;;;;6275636;22;20014;-85
2022/09/21 13:20:47;;;;;;;0.00;0.00;;;18.70;99.90;;;;;;6247544;22;20015;-83
2022/09/21 13:23:21;;;;;;;0.00;0.00;;;18.60;99.90;;;;;;6198286;22;20031;-85
2022/09/21 13:26:00;;;;;;;0.00;0.00;;;18.40;99.90;;;;;;6222342;22;20022;-84
2022/09/21 13:28:55;;;;;;;0.00;0.00;;;18.30;99.90;;;;;;6223177;22;20032;-85